Date,TemperatureHighF,TemperatureAvgF,TemperatureLowF,DewpointHighF,DewpointAvgF,DewpointLowF,HumidityHigh,HumidityAvg,HumidityLow,PressureMaxIn,PressureMinIn,WindSpeedMaxMPH,WindSpeedAvgMPH,GustSpeedMaxMPH,PrecipitationSumIn
2013-5-1,77.5,68.9,59.8,66.4,62.1,56.3,92,80,65,29.82,29.70,13,2,15,0.00
2013-5-2,68.7,64.2,61.1,62.7,61.0,58.7,94,89,79,29.88,29.76,7,0,7,0.83
2013-5-3,63.4,48.0,37.1,61.6,46.6,35.8,95,95,94,29.79,29.67,4,0,5,2.29
2013-5-4,56.3,45.2,34.5,46.4,40.8,33.2,95,86,58,29.76,29.66,9,0,11,0.17
2013-5-5,61.1,51.0,44.8,50.5,46.6,43.4,95,86,58,29.72,29.64,9,0,9,0.47
2013-5-6,64.1,57.7,52.9,57.7,54.4,50.3,94,89,76,29.74,29.64,8,0,8,0.03
2013-5-7,73.8,62.3,49.2,62.0,56.2,47.5,95,82,56,29.79,29.71,6,0,6,0.00
2013-5-8,80.8,66.3,51.0,65.6,57.9,49.3,95,77,48,29.85,29.77,6,0,7,0.00
2013-5-9,80.1,68.9,56.9,66.7,61.4,55.4,95,79,54,29.85,29.72,18,1,19,0.01
2013-5-10,73.1,67.3,63.6,70.6,65.1,61.8,95,93,85,29.74,29.63,8,0,9,2.39
2013-5-11,72.5,65.0,56.9,63.4,58.4,52.8,95,81,52,29.84,29.69,8,0,8,0.00
2013-5-12,66.5,59.0,46.1,56.7,41.2,33.7,94,54,30,30.00,29.83,13,0,13,0.00
2013-5-13,75.0,60.3,43.2,57.5,48.9,41.6,95,70,38,30.05,29.89,8,0,9,0.00
2013-5-14,86.0,70.7,55.2,65.2,57.8,52.2,92,67,37,29.91,29.78,11,0,12,0.00
2013-5-15,84.7,74.0,60.6,62.5,58.1,53.6,86,59,39,29.90,29.72,14,0,15,0.00
2013-5-16,75.3,69.9,63.3,66.7,63.1,60.5,94,80,63,29.77,29.66,10,1,11,0.03
2013-5-17,80.0,70.4,65.4,72.4,66.8,63.3,95,89,70,29.72,29.65,12,1,13,0.22
2013-5-18,82.6,74.4,64.4,76.0,70.8,62.6,95,89,75,29.76,29.67,8,1,10,0.00
2013-5-19,85.8,78.9,71.6,74.0,70.6,66.7,94,77,57,29.74,29.63,15,2,15,0.00
2013-5-20,85.9,80.1,73.9,74.3,71.9,70.5,91,77,65,29.72,29.59,16,4,18,0.00
2013-5-21,77.6,69.9,63.7,71.7,67.4,62.1,95,92,74,29.74,29.52,10,1,16,3.74
2013-5-22,80.0,69.5,62.7,69.9,64.7,61.2,95,86,63,29.68,29.53,13,1,16,0.05
2013-5-23,82.1,72.2,60.8,67.2,63.1,58.8,95,75,54,29.89,29.68,7,0,9,0.00
2013-5-24,75.4,65.7,55.5,59.3,53.4,48.2,92,67,40,30.06,29.88,12,1,14,0.00
2013-5-25,79.8,65.7,50.8,64.6,55.4,48.8,94,72,42,30.08,29.91,9,0,11,0.00
2013-5-26,82.5,70.6,56.3,66.5,59.3,54.8,95,71,40,29.97,29.84,10,1,11,0.00
2013-5-27,84.4,74.1,61.4,71.8,64.2,59.4,94,73,47,29.87,29.73,13,2,14,0.00
2013-5-28,86.2,77.7,71.0,72.1,65.5,60.1,85,68,44,29.81,29.72,13,3,14,0.00
2013-5-29,85.9,76.7,61.9,71.7,66.3,59.2,92,71,48,29.81,29.68,15,4,16,0.00
2013-5-30,84.5,76.7,72.8,73.4,70.3,67.2,91,81,66,29.78,29.66,21,5,24,0.01
2013-5-31,84.5,77.4,68.4,76.1,72.6,66.3,94,86,72,29.76,29.60,19,4,19,0.50